Time;durP1;ratioP1;P1;durP2;ratioP2;P2;SDS_P1;SDS_P2;PMS_P1;PMS_P2;Temp;Humidity;BMP_temperature;BMP_pressure;BME280_temperature;BME280_humidity;BME280_pressure;Samples;Min_cycle;Max_cycle;Signal;HPM_P1;HPM_P2
2021/06/17 00:00:10;;;;;;;3.05;0.90;;;;;;;23.35;40.07;100922.56;4992044;28;20042;-66
2021/06/17 00:02:36;;;;;;;2.05;0.80;;;;;;;23.37;40.09;100932.03;5012414;28;20583;-66
2021/06/17 00:05:03;;;;;;;3.88;1.08;;;;;;;23.37;40.54;100932.03;5009172;28;20084;-69
2021/06/17 00:07:28;;;;;;;2.17;1.02;;;;;;;23.36;40.22;100930.41;5007396;28;20025;-66
2021/06/17 00:09:54;;;;;;;3.85;1.00;;;;;;;23.37;40.44;100931.22;5019319;28;20443;-66
2021/06/17 00:12:19;;;;;;;3.00;0.88;;;;;;;23.36;40.16;100934.94;4991257;28;20440;-66
2021/06/17 00:14:45;;;;;;;2.88;0.88;;;;;;;23.37;40.57;100937.38;4981207;28;20044;-67
2021/06/17 00:17:10;;;;;;;3.15;0.90;;;;;;;23.36;40.38;100937.63;4998794;28;20057;-66
2021/06/17 00:19:36;;;;;;;1.80;0.90;;;;;;;23.35;39.97;100943.97;5009066;28;20033;-67
2021/06/17 00:22:03;;;;;;;2.13;0.88;;;;;;;23.34;40.12;100934.31;4991217;28;20042;-67
2021/06/17 00:24:28;;;;;;;2.33;0.90;;;;;;;23.34;40.12;100931.63;5008769;28;20072;-67
2021/06/17 00:26:54;;;;;;;2.20;0.80;;;;;;;23.34;40.33;100936.97;4997185;28;20507;-67
2021/06/17 00:29:20;;;;;;;2.78;0.80;;;;;;;23.33;39.98;100941.53;5022276;28;20102;-66
2021/06/17 00:31:47;;;;;;;1.88;0.90;;;;;;;23.34;39.92;100942.34;4974788;28;20046;-66
2021/06/17 00:34:12;;;;;;;2.78;0.82;;;;;;;23.34;39.97;100953.03;5021074;28;20041;-66
2021/06/17 00:36:39;;;;;;;2.88;1.00;;;;;;;23.34;40.52;100947.69;5007286;28;20316;-67
2021/06/17 00:39:06;;;;;;;2.28;0.90;;;;;;;23.33;40.43;100946.06;4991130;28;20065;-66
2021/06/17 00:41:33;;;;;;;2.75;0.93;;;;;;;23.34;40.39;100945.00;4997299;28;20037;-66
2021/06/17 00:43:59;;;;;;;2.15;0.90;;;;;;;23.33;40.01;100941.53;5019515;28;20060;-67
2021/06/17 00:46:24;;;;;;;3.05;0.65;;;;;;;23.33;40.09;100941.53;4990549;28;20478;-66
2021/06/17 00:48:51;;;;;;;3.20;1.00;;;;;;;23.34;39.98;100942.34;4990583;28;20397;-67
2021/06/17 00:51:17;;;;;;;2.75;0.95;;;;;;;23.33;40.38;100940.69;5019227;28;20045;-67
2021/06/17 00:53:43;;;;;;;2.03;1.10;;;;;;;23.33;40.01;100936.16;5009482;28;20025;-65
2021/06/17 00:56:08;;;;;;;2.25;0.70;;;;;;;23.33;40.20;100938.03;4991374;28;20033;-68
2021/06/17 00:58:34;;;;;;;2.15;0.90;;;;;;;23.33;40.13;100949.56;5001391;28;20470;-66
2021/06/17 01:01:00;;;;;;;1.88;0.70;;;;;;;23.34;40.31;100947.69;5003541;28;20785;-66
2021/06/17 01:03:26;;;;;;;2.78;0.90;;;;;;;23.34;40.37;100942.34;5019822;28;20123;-65
2021/06/17 01:05:51;;;;;;;2.40;1.00;;;;;;;23.35;40.11;100952.00;4982515;28;20121;-69
2021/06/17 01:08:36;;;;;;;2.47;0.90;;;;;;;23.31;40.59;100948.94;5019629;28;20118;-66
2021/06/17 01:11:24;;;;;;;2.67;0.90;;;;;;;23.30;40.28;100948.13;5008131;28;20029;-68
2021/06/17 01:13:55;;;;;;;1.88;0.75;;;;;;;23.33;40.62;100944.19;5008624;28;20516;-66
2021/06/17 01:16:53;;;;;;;3.17;1.20;;;;;;;23.31;40.50;100944.41;5000125;28;20080;-66
2021/06/17 01:19:51;;;;;;;2.70;0.90;;;;;;;23.30;40.68;100948.13;4988257;28;20133;-67
2021/06/17 01:22:31;;;;;;;3.30;0.95;;;;;;;23.30;40.62;100945.47;4970540;28;20059;-68
2021/06/17 01:25:20;;;;;;;3.17;0.90;;;;;;;23.30;40.53;100945.47;5007619;28;20026;-66
2021/06/17 01:27:54;;;;;;;2.15;0.90;;;;;;;23.34;40.50;100950.38;4997175;28;20152;-66
2021/06/17 01:30:20;;;;;;;1.70;1.00;;;;;;;23.35;40.58;100941.31;4997576;28;20053;-66
2021/06/17 01:32:55;;;;;;;3.05;1.20;;;;;;;23.32;40.55;100939.88;5004712;28;20041;-65
2021/06/17 01:35:22;;;;;;;3.10;1.00;;;;;;;23.34;40.68;100936.97;5011929;28;20091;-66
2021/06/17 01:37:52;;;;;;;2.47;1.02;;;;;;;23.33;40.77;100935.34;5024629;28;20033;-66
2021/06/17 01:40:19;;;;;;;2.83;1.00;;;;;;;23.35;40.65;100936.75;5012716;22;20057;-65
2021/06/17 01:42:45;;;;;;;2.17;0.80;;;;;;;23.35;40.44;100938.63;4955271;28;20084;-64
2021/06/17 01:45:12;;;;;;;2.08;0.82;;;;;;;23.35;40.55;100946.66;4957811;28;20098;-64
2021/06/17 01:47:39;;;;;;;3.13;1.00;;;;;;;23.34;40.54;100945.00;4990918;28;20030;-64
2021/06/17 01:50:06;;;;;;;2.40;1.20;;;;;;;23.35;40.58;100950.16;4990934;28;20034;-64
2021/06/17 01:52:33;;;;;;;2.90;0.85;;;;;;;23.35;40.69;100949.31;4990631;28;20066;-64
2021/06/17 01:55:00;;;;;;;4.30;1.20;;;;;;;23.34;40.47;100945.00;4992181;28;20042;-64
2021/06/17 01:57:27;;;;;;;3.10;0.80;;;;;;;23.35;40.60;100944.78;4972960;28;20062;-65
2021/06/17 01:59:54;;;;;;;3.85;1.20;;;;;;;23.35;40.38;100938.63;4991560;28;20033;-64
2021/06/17 02:02:20;;;;;;;1.83;0.88;;;;;;;23.34;40.85;100936.97;4970908;28;20043;-64
2021/06/17 02:04:50;;;;;;;4.32;0.98;;;;;;;23.34;40.47;100939.66;4958018;28;20034;-64
2021/06/17 02:07:17;;;;;;;2.88;0.88;;;;;;;23.35;40.83;100946.66;4973384;28;20046;-64
2021/06/17 02:09:45;;;;;;;2.72;1.05;;;;;;;23.33;40.76;100930.81;4958517;28;20027;-64
2021/06/17 02:12:11;;;;;;;2.58;1.00;;;;;;;23.33;40.38;100936.16;4974138;28;20046;-64
2021/06/17 02:14:38;;;;;;;2.75;0.90;;;;;;;23.33;40.81;100941.53;4991428;28;20101;-64
2021/06/17 02:17:07;;;;;;;3.00;0.88;;;;;;;23.33;40.43;100943.38;4990363;28;20038;-65
2021/06/17 02:19:34;;;;;;;2.03;1.02;;;;;;;23.33;40.58;100940.69;4992061;28;20026;-64
2021/06/17 02:22:02;;;;;;;3.20;0.68;;;;;;;23.34;40.74;100947.69;4990812;28;20504;-64
2021/06/17 02:24:30;;;;;;;4.93;1.20;;;;;;;23.33;40.16;100951.41;4974047;28;20465;-64
2021/06/17 02:27:00;;;;;;;2.40;0.80;;;;;;;23.31;40.41;100938.25;4990753;28;20129;-65
2021/06/17 02:29:28;;;;;;;2.80;0.98;;;;;;;23.32;40.46;100939.88;4991368;28;20042;-64
2021/06/17 02:31:57;;;;;;;4.55;1.02;;;;;;;23.30;40.62;100948.13;4981638;28;20030;-65
2021/06/17 02:34:24;;;;;;;3.05;1.00;;;;;;;23.30;40.61;100936.59;4991380;28;20567;-64
2021/06/17 02:36:51;;;;;;;2.60;1.10;;;;;;;23.30;40.52;100944.63;4969726;28;20084;-64
2021/06/17 02:39:24;;;;;;;2.90;0.98;;;;;;;23.29;40.59;100945.69;4990808;28;20058;-64
2021/06/17 02:41:54;;;;;;;2.83;1.00;;;;;;;23.29;40.51;100937.66;4990836;28;20030;-64
2021/06/17 02:44:23;;;;;;;2.72;0.93;;;;;;;23.28;40.44;100941.38;4991363;28;20027;-64
2021/06/17 02:46:48;;;;;;;2.33;0.82;;;;;;;23.27;40.63;100945.09;4990527;28;20038;-64
2021/06/17 02:49:14;;;;;;;2.83;1.10;;;;;;;23.27;40.34;100940.53;4956339;28;20041;-64
2021/06/17 02:51:39;;;;;;;2.97;1.15;;;;;;;23.27;40.58;100945.91;4973540;28;20038;-64
2021/06/17 02:54:05;;;;;;;1.83;0.80;;;;;;;23.26;40.28;100938.91;4956808;28;20038;-64
2021/06/17 02:56:58;;;;;;;4.15;1.20;;;;;;;23.26;40.59;100941.59;4973224;28;20038;-64
2021/06/17 02:59:42;;;;;;;3.55;1.10;;;;;;;23.24;40.53;100949.00;4988494;28;20038;-64
2021/06/17 03:02:15;;;;;;;3.88;1.23;;;;;;;23.23;40.39;100939.34;4987945;28;20026;-64
2021/06/17 03:04:45;;;;;;;4.30;1.00;;;;;;;23.22;40.34;100932.34;4989677;28;20034;-64
2021/06/17 03:07:24;;;;;;;2.72;1.00;;;;;;;23.22;40.60;100942.25;4990602;28;20030;-64
2021/06/17 03:09:58;;;;;;;4.60;1.00;;;;;;;23.21;40.50;100945.97;4990618;28;20027;-64
2021/06/17 03:12:27;;;;;;;4.20;1.30;;;;;;;23.20;40.20;100942.47;4990522;28;20486;-64
2021/06/17 03:14:56;;;;;;;4.43;1.10;;;;;;;23.21;40.40;100941.44;4990054;28;20096;-64
2021/06/17 03:17:23;;;;;;;4.72;1.20;;;;;;;23.21;40.28;100948.63;4971891;28;20065;-64
2021/06/17 03:19:53;;;;;;;3.78;1.23;;;;;;;23.19;40.62;100946.16;4990548;28;20108;-64
2021/06/17 03:22:22;;;;;;;2.50;1.02;;;;;;;23.19;40.53;100954.19;4990707;28;20058;-64
2021/06/17 03:24:51;;;;;;;4.07;1.10;;;;;;;23.19;40.54;100946.16;4990277;28;20089;-64
2021/06/17 03:27:18;;;;;;;6.47;1.55;;;;;;;23.19;40.50;100946.16;4972245;28;20086;-65
2021/06/17 03:29:47;;;;;;;3.63;1.00;;;;;;;23.20;40.11;100953.16;4990689;28;20050;-64
2021/06/17 03:32:14;;;;;;;3.25;0.95;;;;;;;23.19;40.40;100954.19;4989072;28;20046;-64
2021/06/17 03:34:43;;;;;;;4.68;1.20;;;;;;;23.20;40.43;100955.03;4990151;28;20034;-64
2021/06/17 03:37:10;;;;;;;3.83;1.30;;;;;;;23.19;40.39;100958.72;4990049;28;20058;-64
2021/06/17 03:39:37;;;;;;;3.72;1.23;;;;;;;23.18;40.48;100955.22;4988168;28;20046;-65
2021/06/17 03:42:05;;;;;;;4.72;1.30;;;;;;;23.17;40.43;100953.59;4981138;28;20065;-65
2021/06/17 03:44:31;;;;;;;2.63;1.27;;;;;;;23.17;40.14;100956.25;4989997;28;20030;-64
2021/06/17 03:46:58;;;;;;;2.70;0.70;;;;;;;23.17;40.46;100958.13;4989187;28;20053;-64
2021/06/17 03:49:24;;;;;;;4.07;1.10;;;;;;;23.16;40.28;100954.63;4988497;28;20121;-64
2021/06/17 03:51:51;;;;;;;2.65;0.90;;;;;;;23.16;40.34;100961.81;4989797;28;20117;-64
2021/06/17 03:54:25;;;;;;;3.28;0.95;;;;;;;23.15;40.40;100961.00;4972938;28;20112;-64
2021/06/17 03:56:55;;;;;;;2.40;0.70;;;;;;;23.15;40.53;100968.22;4976321;28;20034;-64
2021/06/17 03:59:24;;;;;;;4.80;1.27;;;;;;;23.15;40.38;100968.22;4989940;28;20794;-64
2021/06/17 04:01:51;;;;;;;5.20;1.17;;;;;;;23.15;40.48;100982.41;4971808;28;20503;-64
2021/06/17 04:04:17;;;;;;;4.22;1.30;;;;;;;23.15;40.59;100982.41;4989103;28;20486;-64
2021/06/17 04:06:48;;;;;;;4.72;1.30;;;;;;;23.15;40.12;100979.75;4989785;28;20054;-64
2021/06/17 04:09:23;;;;;;;2.50;0.80;;;;;;;23.14;40.39;100986.13;4989085;28;20434;-65
2021/06/17 04:11:49;;;;;;;3.60;1.00;;;;;;;23.14;40.44;100996.84;4988812;28;20729;-64
2021/06/17 04:14:17;;;;;;;3.38;1.05;;;;;;;23.14;40.24;101001.38;4972106;28;20045;-64
2021/06/17 04:16:42;;;;;;;2.33;0.80;;;;;;;23.14;40.11;101002.19;4972102;28;20049;-65
2021/06/17 04:19:08;;;;;;;3.40;0.80;;;;;;;23.13;40.60;100997.06;4989077;28;20474;-64
2021/06/17 04:21:35;;;;;;;3.65;0.82;;;;;;;23.14;40.27;101001.38;4956114;28;20064;-64
2021/06/17 04:24:05;;;;;;;2.55;1.10;;;;;;;23.14;40.57;101006.72;4988921;28;20135;-64
2021/06/17 04:26:32;;;;;;;3.10;1.27;;;;;;;23.14;40.33;101004.88;4989854;28;20041;-64
2021/06/17 04:28:57;;;;;;;2.75;0.88;;;;;;;23.13;40.25;101005.09;4970935;28;20062;-64
2021/06/17 04:31:25;;;;;;;2.22;0.90;;;;;;;23.13;40.34;101005.09;4988163;28;20069;-64
2021/06/17 04:33:50;;;;;;;2.83;0.95;;;;;;;23.12;40.38;100998.91;4954853;28;20034;-64
2021/06/17 04:36:16;;;;;;;4.20;1.10;;;;;;;23.14;40.31;101007.53;4971968;28;20037;-64
2021/06/17 04:38:45;;;;;;;2.80;1.00;;;;;;;23.12;40.44;101017.66;4988769;28;20362;-64
2021/06/17 04:41:10;;;;;;;3.80;1.00;;;;;;;23.13;40.45;101019.28;4972047;28;20051;-64
2021/06/17 04:43:36;;;;;;;2.78;1.10;;;;;;;23.12;40.49;101028.34;4980518;28;20088;-64
2021/06/17 04:46:02;;;;;;;2.65;0.98;;;;;;;23.12;40.22;101022.19;4989084;28;20337;-64
2021/06/17 04:48:33;;;;;;;3.83;1.17;;;;;;;23.13;40.23;101031.84;4970966;28;20044;-64
2021/06/17 04:51:00;;;;;;;4.90;1.20;;;;;;;23.12;40.37;101025.69;4971946;28;20066;-64
2021/06/17 04:53:28;;;;;;;2.58;0.90;;;;;;;23.12;40.54;101030.22;4989199;28;20039;-64
2021/06/17 04:55:55;;;;;;;3.00;1.08;;;;;;;23.13;40.44;101037.19;4988625;28;20092;-64
2021/06/17 04:58:22;;;;;;;4.05;1.13;;;;;;;23.12;40.17;101044.41;4988926;28;20149;-64
2021/06/17 05:00:48;;;;;;;3.80;0.95;;;;;;;23.12;40.10;101044.41;4988363;28;20114;-65
2021/06/17 05:03:14;;;;;;;3.42;1.17;;;;;;;23.12;40.17;101052.44;4988585;28;20637;-64
2021/06/17 05:05:40;;;;;;;2.50;0.88;;;;;;;23.12;40.52;101060.47;4989697;28;20033;-64
2021/06/17 05:10:49;;;;;;;3.33;1.30;;;;;;;23.12;40.09;101073.03;4993144;28;20042;-65
2021/06/17 05:13:17;;;;;;;4.68;1.25;;;;;;;23.13;40.47;101074.66;4992567;28;20511;-64
2021/06/17 05:15:42;;;;;;;5.80;1.20;;;;;;;23.13;40.41;101071.97;4993199;28;20044;-64
2021/06/17 05:18:08;;;;;;;3.85;1.15;;;;;;;23.12;40.28;101073.84;4958088;28;20034;-64
2021/06/17 05:20:33;;;;;;;3.20;1.10;;;;;;;23.11;40.62;101077.56;4992530;28;20034;-64
2021/06/17 05:22:59;;;;;;;5.25;1.00;;;;;;;23.12;40.23;101078.38;4992828;28;20034;-64
2021/06/17 05:25:25;;;;;;;2.95;1.00;;;;;;;23.11;40.33;101088.25;4974506;28;20031;-64
2021/06/17 05:27:50;;;;;;;5.00;0.90;;;;;;;23.11;40.45;101085.59;4992748;28;20406;-64
2021/06/17 05:30:17;;;;;;;5.45;1.45;;;;;;;23.11;40.31;101106.16;4992487;28;20070;-64
2021/06/17 05:32:42;;;;;;;4.68;1.15;;;;;;;23.10;40.45;101107.22;4991761;28;20038;-64
2021/06/17 05:35:09;;;;;;;6.28;1.35;;;;;;;23.08;40.22;101104.75;4992168;28;20411;-64
2021/06/17 05:37:34;;;;;;;2.55;1.00;;;;;;;23.07;40.19;101105.78;4991606;28;20100;-64
2021/06/17 05:40:00;;;;;;;4.47;1.10;;;;;;;23.06;40.12;101109.50;4974480;28;20526;-64
2021/06/17 05:42:25;;;;;;;3.88;1.30;;;;;;;23.05;40.50;101113.19;4974007;28;20429;-64
2021/06/17 05:44:53;;;;;;;3.70;1.27;;;;;;;23.04;40.25;101106.22;4973721;28;20425;-64
2021/06/17 05:47:19;;;;;;;3.28;1.00;;;;;;;23.03;40.47;101112.56;4990787;28;20533;-65
2021/06/17 05:49:45;;;;;;;3.10;0.90;;;;;;;23.01;40.12;101117.31;4991593;28;20100;-64
2021/06/17 05:52:10;;;;;;;4.10;1.20;;;;;;;23.00;40.50;101115.69;4991521;28;20490;-64
2021/06/17 05:54:36;;;;;;;3.75;1.10;;;;;;;22.99;40.06;101114.03;4987500;28;20042;-64
2021/06/17 05:57:01;;;;;;;5.97;1.55;;;;;;;22.99;40.47;101119.38;4991826;28;20027;-64
2021/06/17 05:59:27;;;;;;;6.45;1.35;;;;;;;22.97;40.03;101118.78;4991872;28;20496;-64
2021/06/17 06:01:52;;;;;;;5.82;1.65;;;;;;;22.96;40.50;101111.78;4990634;28;20054;-64
2021/06/17 06:04:18;;;;;;;3.55;1.02;;;;;;;22.94;40.03;101119.22;4990731;28;20034;-64
2021/06/17 06:06:43;;;;;;;5.68;1.20;;;;;;;22.94;40.19;101111.19;4991512;28;20482;-65
2021/06/17 06:09:09;;;;;;;5.38;1.35;;;;;;;22.93;40.35;101104.19;4973225;28;20030;-65
2021/06/17 06:11:35;;;;;;;4.32;1.15;;;;;;;22.93;40.06;101105.00;4974072;28;20092;-65
2021/06/17 06:14:01;;;;;;;5.32;1.25;;;;;;;22.92;40.55;101099.88;4973537;28;20092;-65
2021/06/17 06:16:28;;;;;;;4.72;1.20;;;;;;;22.91;40.40;101103.59;4990822;28;20121;-65
2021/06/17 06:18:54;;;;;;;4.28;1.25;;;;;;;22.91;40.01;101098.22;4972687;28;20031;-65
2021/06/17 06:21:19;;;;;;;3.38;1.25;;;;;;;22.90;40.09;101099.28;4991977;28;20037;-67
2021/06/17 06:23:45;;;;;;;7.88;1.55;;;;;;;22.89;40.35;101101.13;4982303;28;20050;-66
2021/06/17 06:26:10;;;;;;;9.45;1.50;;;;;;;22.89;40.19;101100.31;4972313;28;20031;-67
2021/06/17 06:28:36;;;;;;;7.07;1.25;;;;;;;22.90;40.67;101096.59;4974166;28;20054;-66
2021/06/17 06:31:01;;;;;;;7.97;1.60;;;;;;;22.90;40.49;101105.44;4972854;28;20714;-66
2021/06/17 06:33:27;;;;;;;8.75;1.40;;;;;;;22.91;40.91;101100.91;4971981;28;20069;-65
2021/06/17 06:35:52;;;;;;;5.22;1.20;;;;;;;22.92;40.54;101107.91;4989502;28;20033;-68
2021/06/17 06:38:18;;;;;;;9.60;1.33;;;;;;;22.91;40.55;101098.22;4955919;28;20041;-68
2021/06/17 06:40:44;;;;;;;9.32;1.50;;;;;;;22.93;40.91;101099.66;4989678;28;20046;-68
2021/06/17 06:43:12;;;;;;;6.90;1.60;;;;;;;22.94;41.08;101097.81;4972884;28;20031;-65
2021/06/17 06:45:39;;;;;;;14.20;2.22;;;;;;;22.95;41.07;101104.78;4973227;28;20076;-67
2021/06/17 06:48:04;;;;;;;11.73;1.73;;;;;;;22.96;41.35;101103.75;4971607;28;20054;-67
2021/06/17 06:50:30;;;;;;;10.35;1.75;;;;;;;22.97;41.25;101105.41;4959428;28;20030;-67
2021/06/17 06:52:56;;;;;;;7.25;1.30;;;;;;;22.98;41.56;101099.84;4997802;28;20033;-67
2021/06/17 06:55:22;;;;;;;6.43;1.50;;;;;;;22.97;41.46;101092.84;4991325;28;20038;-66
2021/06/17 06:57:48;;;;;;;8.10;1.90;;;;;;;22.99;41.55;101103.31;4972933;28;20038;-67
2021/06/17 07:00:16;;;;;;;22.75;1.92;;;;;;;22.99;41.68;101100.66;4991226;28;20033;-67
2021/06/17 07:02:42;;;;;;;7.53;1.73;;;;;;;23.00;41.29;101113.00;4989491;28;20514;-67
2021/06/17 07:05:09;;;;;;;5.45;1.00;;;;;;;23.00;41.39;101113.00;4990816;28;20026;-66
2021/06/17 07:07:35;;;;;;;7.15;1.70;;;;;;;22.99;41.30;101116.72;4989888;28;20053;-67
2021/06/17 07:10:01;;;;;;;6.38;1.33;;;;;;;22.99;41.05;101122.06;4989194;28;20102;-67
2021/06/17 07:12:27;;;;;;;5.40;1.27;;;;;;;22.99;41.45;101125.56;4990325;28;20083;-67
2021/06/17 07:14:52;;;;;;;4.60;1.30;;;;;;;22.98;41.54;101121.25;4990251;28;20035;-68
2021/06/17 07:17:18;;;;;;;7.38;1.63;;;;;;;22.98;41.14;101117.75;4988947;28;20034;-67
2021/06/17 07:19:43;;;;;;;4.03;1.25;;;;;;;22.98;41.11;101115.06;4973160;28;20065;-67
2021/06/17 07:22:09;;;;;;;9.52;1.50;;;;;;;22.98;41.35;101123.09;4989767;28;20042;-67
2021/06/17 07:24:35;;;;;;;7.88;1.38;;;;;;;22.97;41.42;101130.31;4990618;28;20026;-69
2021/06/17 07:27:02;;;;;;;6.70;1.65;;;;;;;22.98;41.10;101131.13;4989623;28;20034;-66
2021/06/17 07:29:28;;;;;;;10.05;1.50;;;;;;;22.96;41.57;101133.19;4989344;28;20035;-67
2021/06/17 07:31:53;;;;;;;4.53;1.30;;;;;;;22.94;41.53;101129.91;4972268;28;20037;-68
2021/06/17 07:34:21;;;;;;;6.47;1.73;;;;;;;22.92;41.47;101137.31;4989773;28;20056;-66
2021/06/17 07:36:46;;;;;;;10.02;2.05;;;;;;;22.90;41.50;101144.75;4973808;28;20034;-66
2021/06/17 07:39:12;;;;;;;6.22;1.42;;;;;;;22.90;41.43;101144.75;4973068;28;20409;-66
2021/06/17 07:41:38;;;;;;;4.43;1.50;;;;;;;22.88;41.07;101144.97;4990168;28;20041;-65
2021/06/17 07:44:05;;;;;;;6.38;1.83;;;;;;;22.87;41.15;101145.13;4989637;28;20038;-65
2021/06/17 07:46:31;;;;;;;6.38;1.52;;;;;;;22.84;41.46;101157.09;4973173;28;20038;-65
2021/06/17 07:48:58;;;;;;;11.82;2.17;;;;;;;22.84;41.31;101157.09;4971277;28;20501;-65
2021/06/17 07:51:28;;;;;;;10.93;2.50;;;;;;;22.85;41.76;101168.59;4972912;28;20461;-65
2021/06/17 07:53:59;;;;;;;13.30;2.67;;;;;;;22.85;41.65;101163.25;4978367;28;20033;-66
2021/06/17 07:56:24;;;;;;;13.70;2.58;;;;;;;22.84;41.71;101161.63;4990091;28;20049;-65
2021/06/17 07:58:50;;;;;;;12.20;2.83;;;;;;;22.87;41.63;101177.25;4989272;28;20038;-65
2021/06/17 08:01:15;;;;;;;16.92;3.50;;;;;;;22.87;41.56;101183.41;4989626;28;20497;-65
2021/06/17 08:03:40;;;;;;;16.30;3.45;;;;;;;22.88;41.60;101181.56;4971279;28;20030;-65
2021/06/17 08:06:06;;;;;;;18.48;3.30;;;;;;;22.90;41.66;101184.88;4971132;28;20401;-65
2021/06/17 08:08:31;;;;;;;13.63;4.35;;;;;;;22.91;42.05;101200.72;4971602;28;20045;-65
2021/06/17 08:10:57;;;;;;;20.25;4.85;;;;;;;22.93;42.11;101192.47;4989202;28;20391;-66
2021/06/17 08:13:22;;;;;;;17.67;5.20;;;;;;;22.91;41.79;101195.38;4987917;28;20046;-67
2021/06/17 08:15:49;;;;;;;16.45;3.65;;;;;;;22.90;41.68;101201.75;4988092;28;20038;-66
2021/06/17 08:18:15;;;;;;;15.25;3.10;;;;;;;22.88;41.53;101195.78;4965845;28;20849;-68
2021/06/17 08:20:42;;;;;;;13.30;3.17;;;;;;;22.87;41.77;101207.50;4987171;28;20038;-66
2021/06/17 08:23:07;;;;;;;10.68;3.05;;;;;;;22.87;41.34;101201.31;4969218;28;20038;-65
2021/06/17 08:25:33;;;;;;;12.98;2.65;;;;;;;22.85;41.26;101200.72;4987145;28;20084;-65
2021/06/17 08:28:04;;;;;;;10.40;2.50;;;;;;;22.85;41.06;101200.72;4987841;28;20101;-65
2021/06/17 08:30:30;;;;;;;9.05;2.33;;;;;;;22.83;41.26;101202.78;4988125;28;20030;-67
2021/06/17 08:32:55;;;;;;;7.90;1.98;;;;;;;22.82;41.28;101204.63;4987067;28;20097;-66
2021/06/17 08:35:21;;;;;;;8.63;2.00;;;;;;;22.80;40.91;101200.50;4989335;28;20030;-65
2021/06/17 08:37:46;;;;;;;5.90;1.83;;;;;;;22.79;40.78;101196.19;4989481;28;20057;-65
2021/06/17 08:40:12;;;;;;;5.65;1.60;;;;;;;22.77;41.04;101198.25;4989376;28;20173;-65
2021/06/17 08:42:38;;;;;;;6.57;1.58;;;;;;;22.76;40.72;101194.75;4988753;28;20485;-65
2021/06/17 08:45:08;;;;;;;4.28;1.17;;;;;;;22.75;40.76;101194.94;4989209;28;20068;-65
2021/06/17 08:47:35;;;;;;;5.78;1.30;;;;;;;22.71;40.45;101205.22;4971041;28;20038;-65
2021/06/17 08:50:03;;;;;;;6.78;1.85;;;;;;;22.68;40.58;101201.13;4989559;28;20034;-65
2021/06/17 08:52:34;;;;;;;6.72;1.60;;;;;;;22.67;40.12;101191.44;4972307;28;20061;-65
2021/06/17 08:55:29;;;;;;;5.30;1.45;;;;;;;22.62;40.52;101193.94;4989485;28;20030;-65
2021/06/17 08:57:57;;;;;;;5.32;1.10;;;;;;;22.66;40.55;101205.03;4973458;28;20038;-66
2021/06/17 09:00:23;;;;;;;2.90;1.05;;;;;;;22.66;40.37;101213.06;4989408;28;20129;-66
2021/06/17 09:03:12;;;;;;;7.10;1.35;;;;;;;22.63;40.35;101198.25;4988819;28;20188;-65
2021/06/17 09:05:41;;;;;;;5.45;1.17;;;;;;;22.62;39.99;101191.25;4989332;28;20041;-67
2021/06/17 09:08:08;;;;;;;5.13;1.15;;;;;;;22.63;40.04;101192.09;4970996;28;20445;-65
2021/06/17 09:10:39;;;;;;;3.60;1.20;;;;;;;22.63;39.80;101192.09;4971949;28;20034;-65
2021/06/17 09:13:05;;;;;;;3.25;1.08;;;;;;;22.63;39.76;101194.75;4989369;28;20031;-65
2021/06/17 09:15:37;;;;;;;5.03;1.17;;;;;;;22.61;39.77;101197.66;4988963;28;20041;-66
2021/06/17 09:18:18;;;;;;;4.40;1.35;;;;;;;22.60;39.65;101203.19;4988610;28;20038;-66
2021/06/17 09:20:49;;;;;;;6.07;1.30;;;;;;;22.61;39.64;101211.00;4976679;28;20138;-65
2021/06/17 09:23:24;;;;;;;4.82;1.23;;;;;;;22.60;39.12;101209.38;4988794;28;20054;-65
2021/06/17 09:25:52;;;;;;;4.18;1.17;;;;;;;22.61;39.55;101210.19;4989299;28;20030;-65
2021/06/17 09:28:18;;;;;;;2.80;1.05;;;;;;;22.60;39.34;101206.69;4971141;28;20477;-65
2021/06/17 09:30:44;;;;;;;5.22;1.10;;;;;;;22.61;39.32;101202.16;4971527;28;20035;-66
2021/06/17 09:33:12;;;;;;;5.30;1.13;;;;;;;22.61;39.46;101202.16;4988228;28;20049;-66
2021/06/17 09:35:53;;;;;;;4.32;1.45;;;;;;;22.59;39.32;101196.22;4989066;28;20035;-65
2021/06/17 09:38:19;;;;;;;3.60;1.10;;;;;;;22.63;38.87;101202.78;4988800;28;20034;-65
2021/06/17 09:40:47;;;;;;;5.13;1.52;;;;;;;22.62;39.02;101195.78;4988102;28;20047;-65
2021/06/17 09:43:18;;;;;;;3.60;1.00;;;;;;;22.60;39.17;101192.50;4988783;28;20486;-66
2021/06/17 09:46:05;;;;;;;3.38;1.15;;;;;;;22.56;38.61;101201.94;4988721;28;20026;-65
2021/06/17 09:48:35;;;;;;;3.50;1.08;;;;;;;22.58;38.39;101203.41;4988208;28;20031;-65
2021/06/17 09:51:23;;;;;;;4.30;1.30;;;;;;;22.56;38.67;101202.75;4988939;28;20026;-65
2021/06/17 09:53:49;;;;;;;4.30;1.35;;;;;;;22.58;38.43;101208.75;4990643;28;20030;-65
2021/06/17 09:56:16;;;;;;;3.25;1.13;;;;;;;22.58;38.28;101208.75;4974631;28;20117;-65
2021/06/17 09:58:44;;;;;;;7.13;1.33;;;;;;;22.58;38.16;101206.09;4992957;28;20035;-66
2021/06/17 10:01:17;;;;;;;5.30;1.38;;;;;;;22.57;38.01;101217.81;4991960;28;20034;-65
2021/06/17 10:03:59;;;;;;;4.78;1.10;;;;;;;22.54;38.06;101212.84;4990522;28;20666;-65
2021/06/17 10:06:26;;;;;;;4.18;1.00;;;;;;;22.56;38.09;101210.78;4979733;28;20092;-65
2021/06/17 10:08:52;;;;;;;4.75;1.00;;;;;;;22.56;38.12;101213.47;4991806;28;20052;-65
2021/06/17 10:11:18;;;;;;;3.88;1.27;;;;;;;22.57;38.20;101217.81;4991850;28;20034;-65
2021/06/17 10:13:43;;;;;;;4.55;1.25;;;;;;;22.57;37.79;101209.78;4991875;28;20088;-65
2021/06/17 10:16:09;;;;;;;5.95;1.38;;;;;;;22.58;37.84;101210.63;4974912;28;20122;-67
2021/06/17 10:18:36;;;;;;;6.10;1.98;;;;;;;22.58;37.73;101207.94;4991230;28;20065;-65
2021/06/17 10:21:01;;;;;;;4.68;1.00;;;;;;;22.57;37.86;101207.13;4992215;28;20030;-65
2021/06/17 10:23:27;;;;;;;6.45;1.15;;;;;;;22.58;37.91;101218.63;4991425;28;20038;-65
2021/06/17 10:25:52;;;;;;;3.25;1.30;;;;;;;22.57;37.59;101212.47;4992303;28;20742;-65
2021/06/17 10:28:40;;;;;;;4.88;1.20;;;;;;;22.55;37.54;101211.00;4991536;28;20040;-65
2021/06/17 10:31:05;;;;;;;3.38;1.08;;;;;;;22.58;37.55;101216.78;4980227;28;20026;-65
2021/06/17 10:33:34;;;;;;;3.88;1.08;;;;;;;22.59;37.69;101212.25;4991429;28;20497;-65
2021/06/17 10:36:37;;;;;;;3.67;1.10;;;;;;;22.56;37.52;101212.63;4978692;28;20091;-66
2021/06/17 10:39:09;;;;;;;3.03;1.10;;;;;;;22.56;37.60;101209.97;4973252;28;20134;-65
2021/06/17 10:41:49;;;;;;;5.65;1.38;;;;;;;22.55;37.41;101216.34;4992280;28;20038;-65
2021/06/17 10:44:33;;;;;;;8.98;1.40;;;;;;;22.53;37.41;101219.22;4991261;28;20037;-65
2021/06/17 10:46:58;;;;;;;6.55;1.63;;;;;;;22.56;37.72;101218.81;4991091;28;20030;-65
2021/06/17 10:49:42;;;;;;;3.58;1.02;;;;;;;22.54;37.83;101230.75;4991453;28;20120;-65
2021/06/17 10:52:28;;;;;;;7.10;2.07;;;;;;;22.53;37.78;101243.28;4991844;28;20038;-65
2021/06/17 10:55:14;;;;;;;3.97;1.10;;;;;;;22.52;37.31;101241.66;4979827;28;20397;-65
2021/06/17 10:57:47;;;;;;;6.18;1.10;;;;;;;22.54;37.41;101249.47;4973781;28;20038;-65
2021/06/17 11:00:28;;;;;;;5.50;1.40;;;;;;;22.52;37.60;101252.34;4991668;28;20080;-66
2021/06/17 11:03:06;;;;;;;5.32;1.38;;;;;;;22.52;37.17;101247.00;4986900;28;20023;-66
2021/06/17 11:05:32;;;;;;;7.32;1.58;;;;;;;22.54;37.39;101246.78;4983231;28;20089;-65
2021/06/17 11:08:16;;;;;;;4.57;1.27;;;;;;;22.52;37.63;101248.84;4990689;28;20038;-66
2021/06/17 11:10:46;;;;;;;3.30;1.35;;;;;;;22.52;37.20;101257.69;4979540;28;20026;-65
2021/06/17 11:13:49;;;;;;;6.05;1.45;;;;;;;22.50;37.29;101261.59;4990765;28;20038;-65
2021/06/17 11:16:18;;;;;;;;;;;;;;;22.45;37.61;101248.03;4931472;28;20055;-65
2021/06/17 11:21:31;;;;;;;6.13;1.50;;;;;;;22.50;36.96;101245.56;4990986;28;20085;-65
2021/06/17 11:24:21;;;;;;;5.85;1.33;;;;;;;22.49;37.01;101238.56;4985406;28;20035;-65
2021/06/17 11:26:51;;;;;;;6.43;1.50;;;;;;;22.52;36.84;101228.28;4985085;28;20112;-65
2021/06/17 11:29:19;;;;;;;3.58;1.25;;;;;;;22.53;36.97;101229.09;4990470;28;20030;-65
2021/06/17 11:31:46;;;;;;;3.92;1.40;;;;;;;22.52;36.83;101228.28;4990850;28;20497;-65
2021/06/17 11:34:14;;;;;;;4.95;1.23;;;;;;;22.53;36.95;101242.47;4989385;28;20044;-65
2021/06/17 11:36:54;;;;;;;6.22;1.30;;;;;;;22.49;36.90;101244.75;4990868;28;20033;-66